sensor_id;sensor_type;location;lat;lon;timestamp;pressure;altitude;pressure_sealevel;temperature;humidity
72330;BME280;69154;52.076;5.110;2023-04-22T00:00:59;100921.81;;;7.25;36.44
72330;BME280;69154;52.076;5.110;2023-04-22T00:03:25;100920.70;;;8.23;34.98
72330;BME280;69154;52.076;5.110;2023-04-22T00:05:50;100925.38;;;7.84;34.11
72330;BME280;69154;52.076;5.110;2023-04-22T00:08:16;100924.87;;;7.78;34.51
72330;BME280;69154;52.076;5.110;2023-04-22T00:10:41;100922.36;;;8.17;35.44
72330;BME280;69154;52.076;5.110;2023-04-22T00:13:07;100918.68;;;8.28;35.09
72330;BME280;69154;52.076;5.110;2023-04-22T00:15:32;100917.28;;;8.00;35.96
72330;BME280;69154;52.076;5.110;2023-04-22T00:17:58;100916.13;;;6.90;36.35
72330;BME280;69154;52.076;5.110;2023-04-22T00:20:23;100912.75;;;7.11;36.18
72330;BME280;69154;52.076;5.110;2023-04-22T00:22:48;100914.65;;;6.36;36.87
72330;BME280;69154;52.076;5.110;2023-04-22T00:25:15;100910.19;;;8.02;35.61
72330;BME280;69154;52.076;5.110;2023-04-22T00:27:40;100911.99;;;8.08;35.22
72330;BME280;69154;52.076;5.110;2023-04-22T00:30:06;100915.44;;;8.92;34.12
72330;BME280;69154;52.076;5.110;2023-04-22T00:32:30;100910.39;;;9.25;33.60
72330;BME280;69154;52.076;5.110;2023-04-22T00:34:55;100906.64;;;8.24;33.48
72330;BME280;69154;52.076;5.110;2023-04-22T00:37:20;100907.04;;;8.00;34.88
72330;BME280;69154;52.076;5.110;2023-04-22T00:39:46;100909.21;;;7.65;35.53
72330;BME280;69154;52.076;5.110;2023-04-22T00:42:12;100911.84;;;8.74;34.39
72330;BME280;69154;52.076;5.110;2023-04-22T00:44:36;100910.68;;;10.02;32.14
72330;BME280;69154;52.076;5.110;2023-04-22T00:47:01;100910.25;;;9.55;32.04
72330;BME280;69154;52.076;5.110;2023-04-22T00:49:27;100907.19;;;9.78;31.64
72330;BME280;69154;52.076;5.110;2023-04-22T00:51:53;100906.36;;;10.24;30.46
72330;BME280;69154;52.076;5.110;2023-04-22T00:54:18;100908.22;;;8.78;31.19
72330;BME280;69154;52.076;5.110;2023-04-22T00:56:43;100913.51;;;8.64;31.48
72330;BME280;69154;52.076;5.110;2023-04-22T00:59:09;100924.46;;;9.23;31.31
72330;BME280;69154;52.076;5.110;2023-04-22T01:01:35;100927.54;;;10.18;31.04
72330;BME280;69154;52.076;5.110;2023-04-22T01:04:02;100924.50;;;9.91;30.84
72330;BME280;69154;52.076;5.110;2023-04-22T01:06:26;100925.13;;;10.03;30.52
72330;BME280;69154;52.076;5.110;2023-04-22T01:08:51;100919.11;;;10.54;29.72
72330;BME280;69154;52.076;5.110;2023-04-22T01:11:17;100926.30;;;10.32;29.77
72330;BME280;69154;52.076;5.110;2023-04-22T01:13:42;100925.86;;;9.67;30.50
72330;BME280;69154;52.076;5.110;2023-04-22T01:16:08;100930.46;;;9.68;29.90
72330;BME280;69154;52.076;5.110;2023-04-22T01:18:33;100931.14;;;10.39;29.85
72330;BME280;69154;52.076;5.110;2023-04-22T01:20:58;100930.41;;;8.82;30.55
72330;BME280;69154;52.076;5.110;2023-04-22T01:23:23;100927.24;;;8.36;30.77
72330;BME280;69154;52.076;5.110;2023-04-22T01:25:49;100930.29;;;9.75;30.39
72330;BME280;69154;52.076;5.110;2023-04-22T01:28:15;100928.45;;;8.84;30.38
72330;BME280;69154;52.076;5.110;2023-04-22T01:30:41;100930.00;;;8.64;30.49
72330;BME280;69154;52.076;5.110;2023-04-22T01:33:06;100931.25;;;8.03;31.13
72330;BME280;69154;52.076;5.110;2023-04-22T01:35:31;100934.94;;;10.52;30.84
72330;BME280;69154;52.076;5.110;2023-04-22T01:37:57;100934.40;;;8.64;30.99
72330;BME280;69154;52.076;5.110;2023-04-22T01:40:23;100933.81;;;10.04;30.82
72330;BME280;69154;52.076;5.110;2023-04-22T01:42:47;100936.07;;;10.66;30.16
72330;BME280;69154;52.076;5.110;2023-04-22T01:45:13;100937.44;;;10.55;30.68
72330;BME280;69154;52.076;5.110;2023-04-22T01:47:39;100937.41;;;10.61;30.27
72330;BME280;69154;52.076;5.110;2023-04-22T01:50:05;100940.53;;;10.61;30.30
72330;BME280;69154;52.076;5.110;2023-04-22T01:52:30;100939.78;;;10.70;30.14
72330;BME280;69154;52.076;5.110;2023-04-22T01:54:57;100933.84;;;10.37;30.15
72330;BME280;69154;52.076;5.110;2023-04-22T01:57:21;100929.73;;;9.87;30.92
72330;BME280;69154;52.076;5.110;2023-04-22T01:59:46;100924.85;;;9.31;30.63
72330;BME280;69154;52.076;5.110;2023-04-22T02:02:11;100921.64;;;10.80;29.77
72330;BME280;69154;52.076;5.110;2023-04-22T02:04:37;100920.13;;;10.44;29.78
72330;BME280;69154;52.076;5.110;2023-04-22T02:07:03;100919.43;;;10.67;29.16
72330;BME280;69154;52.076;5.110;2023-04-22T02:09:28;100924.71;;;9.73;29.78
72330;BME280;69154;52.076;5.110;2023-04-22T02:11:53;100921.86;;;7.80;31.25
72330;BME280;69154;52.076;5.110;2023-04-22T02:14:19;100918.71;;;8.92;31.67
72330;BME280;69154;52.076;5.110;2023-04-22T02:16:44;100918.71;;;9.46;30.70
72330;BME280;69154;52.076;5.110;2023-04-22T02:19:10;100919.37;;;9.97;30.72
72330;BME280;69154;52.076;5.110;2023-04-22T02:21:34;100918.07;;;9.91;30.70
72330;BME280;69154;52.076;5.110;2023-04-22T02:24:00;100919.84;;;9.87;30.95
72330;BME280;69154;52.076;5.110;2023-04-22T02:26:27;100917.24;;;10.52;30.94
72330;BME280;69154;52.076;5.110;2023-04-22T02:28:51;100918.01;;;9.85;30.86
72330;BME280;69154;52.076;5.110;2023-04-22T02:31:17;100914.25;;;9.21;31.63
72330;BME280;69154;52.076;5.110;2023-04-22T02:33:42;100910.96;;;9.67;31.18
72330;BME280;69154;52.076;5.110;2023-04-22T02:36:08;100912.81;;;10.17;30.74
72330;BME280;69154;52.076;5.110;2023-04-22T02:38:33;100910.22;;;9.56;30.75
72330;BME280;69154;52.076;5.110;2023-04-22T02:40:59;100907.49;;;10.47;30.30
72330;BME280;69154;52.076;5.110;2023-04-22T02:43:25;100904.11;;;11.72;29.83
72330;BME280;69154;52.076;5.110;2023-04-22T02:45:49;100903.24;;;10.21;29.84
72330;BME280;69154;52.076;5.110;2023-04-22T02:48:15;100901.71;;;11.46;28.85
72330;BME280;69154;52.076;5.110;2023-04-22T02:50:41;100901.39;;;8.59;30.66
72330;BME280;69154;52.076;5.110;2023-04-22T02:53:07;100903.81;;;9.12;30.87
72330;BME280;69154;52.076;5.110;2023-04-22T02:55:32;100899.04;;;9.99;30.44
72330;BME280;69154;52.076;5.110;2023-04-22T02:57:59;100897.65;;;9.67;30.01
72330;BME280;69154;52.076;5.110;2023-04-22T03:00:22;100889.76;;;10.11;29.98
72330;BME280;69154;52.076;5.110;2023-04-22T03:02:48;100887.78;;;9.46;30.26
72330;BME280;69154;52.076;5.110;2023-04-22T03:05:13;100886.27;;;10.89;29.23
72330;BME280;69154;52.076;5.110;2023-04-22T03:07:39;100887.85;;;9.50;30.32
72330;BME280;69154;52.076;5.110;2023-04-22T03:10:05;100881.13;;;9.83;30.35
72330;BME280;69154;52.076;5.110;2023-04-22T03:12:29;100878.08;;;11.12;29.87
72330;BME280;69154;52.076;5.110;2023-04-22T03:14:55;100869.79;;;10.87;29.73
72330;BME280;69154;52.076;5.110;2023-04-22T03:17:20;100876.30;;;11.26;30.26
72330;BME280;69154;52.076;5.110;2023-04-22T03:19:45;100873.72;;;10.76;30.60
72330;BME280;69154;52.076;5.110;2023-04-22T03:22:11;100871.62;;;10.08;31.62
72330;BME280;69154;52.076;5.110;2023-04-22T03:24:37;100869.56;;;10.32;31.43
72330;BME280;69154;52.076;5.110;2023-04-22T03:27:02;100863.67;;;11.09;29.54
72330;BME280;69154;52.076;5.110;2023-04-22T03:29:28;100865.39;;;11.61;30.01
72330;BME280;69154;52.076;5.110;2023-04-22T03:31:53;100860.43;;;11.08;29.60
72330;BME280;69154;52.076;5.110;2023-04-22T03:34:19;100859.93;;;11.40;29.67
72330;BME280;69154;52.076;5.110;2023-04-22T03:36:44;100854.09;;;11.49;29.65
72330;BME280;69154;52.076;5.110;2023-04-22T03:39:09;100849.10;;;11.43;29.48
72330;BME280;69154;52.076;5.110;2023-04-22T03:41:35;100847.78;;;10.55;30.26
72330;BME280;69154;52.076;5.110;2023-04-22T03:44:00;100845.66;;;9.74;30.32
72330;BME280;69154;52.076;5.110;2023-04-22T03:46:25;100842.68;;;9.98;30.36
72330;BME280;69154;52.076;5.110;2023-04-22T03:48:51;100844.85;;;10.54;29.87
72330;BME280;69154;52.076;5.110;2023-04-22T03:51:16;100847.35;;;10.01;31.05
72330;BME280;69154;52.076;5.110;2023-04-22T03:53:41;100844.96;;;8.96;32.46
72330;BME280;69154;52.076;5.110;2023-04-22T03:56:07;100844.06;;;8.16;33.32
72330;BME280;69154;52.076;5.110;2023-04-22T03:58:32;100842.41;;;8.92;33.24
72330;BME280;69154;52.076;5.110;2023-04-22T04:00:58;100842.21;;;8.57;32.28
72330;BME280;69154;52.076;5.110;2023-04-22T04:03:23;100835.06;;;9.65;31.86
72330;BME280;69154;52.076;5.110;2023-04-22T04:05:49;100828.24;;;10.07;31.03
72330;BME280;69154;52.076;5.110;2023-04-22T04:08:14;100824.93;;;11.30;30.10
72330;BME280;69154;52.076;5.110;2023-04-22T04:10:40;100821.02;;;10.90;30.41
72330;BME280;69154;52.076;5.110;2023-04-22T04:13:05;100821.87;;;10.68;30.60
72330;BME280;69154;52.076;5.110;2023-04-22T04:15:35;100825.07;;;9.79;31.18
72330;BME280;69154;52.076;5.110;2023-04-22T04:17:56;100820.76;;;10.16;30.89
72330;BME280;69154;52.076;5.110;2023-04-22T04:20:21;100818.52;;;8.88;32.41
72330;BME280;69154;52.076;5.110;2023-04-22T04:22:47;100814.40;;;8.97;33.28
72330;BME280;69154;52.076;5.110;2023-04-22T04:25:12;100812.87;;;8.36;33.77
72330;BME280;69154;52.076;5.110;2023-04-22T04:27:38;100810.64;;;9.45;33.13
72330;BME280;69154;52.076;5.110;2023-04-22T04:30:04;100812.77;;;9.13;32.93
72330;BME280;69154;52.076;5.110;2023-04-22T04:32:29;100809.98;;;11.39;31.15
72330;BME280;69154;52.076;5.110;2023-04-22T04:34:54;100813.39;;;10.10;31.21
72330;BME280;69154;52.076;5.110;2023-04-22T04:37:20;100813.58;;;9.16;32.10
72330;BME280;69154;52.076;5.110;2023-04-22T04:39:46;100805.06;;;11.30;30.40
72330;BME280;69154;52.076;5.110;2023-04-22T04:42:11;100798.78;;;11.40;30.27
72330;BME280;69154;52.076;5.110;2023-04-22T04:44:36;100801.56;;;11.94;30.10
72330;BME280;69154;52.076;5.110;2023-04-22T04:47:01;100797.78;;;11.41;30.34
72330;BME280;69154;52.076;5.110;2023-04-22T04:49:27;100796.89;;;10.33;31.51
72330;BME280;69154;52.076;5.110;2023-04-22T04:51:53;100802.67;;;8.82;32.33
72330;BME280;69154;52.076;5.110;2023-04-22T04:54:18;100799.32;;;9.06;32.78
72330;BME280;69154;52.076;5.110;2023-04-22T04:56:43;100796.55;;;9.62;32.60
72330;BME280;69154;52.076;5.110;2023-04-22T04:59:08;100793.21;;;10.26;31.75
72330;BME280;69154;52.076;5.110;2023-04-22T05:01:34;100796.18;;;9.84;32.07
72330;BME280;69154;52.076;5.110;2023-04-22T05:03:59;100795.09;;;9.75;31.85
72330;BME280;69154;52.076;5.110;2023-04-22T05:06:25;100792.71;;;10.87;30.93
72330;BME280;69154;52.076;5.110;2023-04-22T05:08:51;100791.09;;;11.53;29.95
72330;BME280;69154;52.076;5.110;2023-04-22T05:11:16;100793.75;;;10.80;31.02
72330;BME280;69154;52.076;5.110;2023-04-22T05:13:42;100794.97;;;10.52;31.38
72330;BME280;69154;52.076;5.110;2023-04-22T05:16:07;100798.05;;;9.92;31.66
72330;BME280;69154;52.076;5.110;2023-04-22T05:18:32;100804.72;;;10.49;31.65
72330;BME280;69154;52.076;5.110;2023-04-22T05:20:57;100804.54;;;9.70;32.15
72330;BME280;69154;52.076;5.110;2023-04-22T05:23:23;100807.49;;;9.14;34.07
72330;BME280;69154;52.076;5.110;2023-04-22T05:25:48;100804.95;;;8.17;34.54
72330;BME280;69154;52.076;5.110;2023-04-22T05:28:14;100805.31;;;9.63;33.79
72330;BME280;69154;52.076;5.110;2023-04-22T05:30:40;100805.92;;;8.11;35.73
72330;BME280;69154;52.076;5.110;2023-04-22T05:33:05;100815.48;;;8.40;35.08
72330;BME280;69154;52.076;5.110;2023-04-22T05:35:30;100819.50;;;8.78;35.61
72330;BME280;69154;52.076;5.110;2023-04-22T05:37:55;100816.46;;;8.65;34.66
72330;BME280;69154;52.076;5.110;2023-04-22T05:40:20;100816.67;;;11.37;32.27
72330;BME280;69154;52.076;5.110;2023-04-22T05:42:46;100819.79;;;10.93;31.73
72330;BME280;69154;52.076;5.110;2023-04-22T05:45:11;100816.59;;;12.07;30.17
72330;BME280;69154;52.076;5.110;2023-04-22T05:47:37;100816.51;;;12.50;30.74
72330;BME280;69154;52.076;5.110;2023-04-22T05:50:03;100816.41;;;10.37;32.61
72330;BME280;69154;52.076;5.110;2023-04-22T05:52:28;100820.48;;;9.98;32.10
72330;BME280;69154;52.076;5.110;2023-04-22T05:54:53;100816.42;;;11.28;31.05
72330;BME280;69154;52.076;5.110;2023-04-22T05:57:18;100817.31;;;11.89;31.74
72330;BME280;69154;52.076;5.110;2023-04-22T05:59:44;100814.13;;;11.58;32.12
72330;BME280;69154;52.076;5.110;2023-04-22T06:02:09;100810.12;;;12.52;30.43
72330;BME280;69154;52.076;5.110;2023-04-22T06:04:35;100810.28;;;12.28;29.89
72330;BME280;69154;52.076;5.110;2023-04-22T06:07:00;100815.64;;;10.91;31.09
72330;BME280;69154;52.076;5.110;2023-04-22T06:09:26;100813.09;;;11.50;30.58
72330;BME280;69154;52.076;5.110;2023-04-22T06:11:51;100810.06;;;11.10;31.69
72330;BME280;69154;52.076;5.110;2023-04-22T06:14:16;100813.07;;;9.75;33.45
72330;BME280;69154;52.076;5.110;2023-04-22T06:16:41;100807.43;;;10.12;33.42
72330;BME280;69154;52.076;5.110;2023-04-22T06:19:06;100799.53;;;11.87;32.05
72330;BME280;69154;52.076;5.110;2023-04-22T06:21:31;100793.22;;;13.72;28.76
72330;BME280;69154;52.076;5.110;2023-04-22T06:23:57;100792.40;;;13.03;29.81
72330;BME280;69154;52.076;5.110;2023-04-22T06:26:23;100793.07;;;13.57;29.90
72330;BME280;69154;52.076;5.110;2023-04-22T06:28:48;100788.19;;;12.53;30.88
72330;BME280;69154;52.076;5.110;2023-04-22T06:31:14;100777.26;;;12.16;29.90
72330;BME280;69154;52.076;5.110;2023-04-22T06:33:40;100771.19;;;10.85;31.36
72330;BME280;69154;52.076;5.110;2023-04-22T06:36:06;100773.65;;;9.64;33.31
72330;BME280;69154;52.076;5.110;2023-04-22T06:38:30;100769.17;;;10.61;33.64
72330;BME280;69154;52.076;5.110;2023-04-22T06:40:55;100768.53;;;11.58;31.88
72330;BME280;69154;52.076;5.110;2023-04-22T06:43:20;100765.46;;;14.22;29.33
72330;BME280;69154;52.076;5.110;2023-04-22T06:45:46;100769.18;;;13.79;29.62
72330;BME280;69154;52.076;5.110;2023-04-22T06:48:12;100769.51;;;12.41;30.52
72330;BME280;69154;52.076;5.110;2023-04-22T06:50:42;100768.76;;;12.82;30.09
72330;BME280;69154;52.076;5.110;2023-04-22T06:53:03;100763.90;;;13.72;29.51
72330;BME280;69154;52.076;5.110;2023-04-22T06:55:28;100759.82;;;12.51;30.43
72330;BME280;69154;52.076;5.110;2023-04-22T06:57:53;100754.50;;;12.84;29.83
72330;BME280;69154;52.076;5.110;2023-04-22T07:00:19;100756.40;;;13.42;30.06
72330;BME280;69154;52.076;5.110;2023-04-22T07:02:44;100757.01;;;14.14;29.85
72330;BME280;69154;52.076;5.110;2023-04-22T07:05:09;100758.64;;;14.36;28.68
72330;BME280;69154;52.076;5.110;2023-04-22T07:07:35;100754.26;;;13.82;29.31
72330;BME280;69154;52.076;5.110;2023-04-22T07:10:00;100753.29;;;14.99;27.05
72330;BME280;69154;52.076;5.110;2023-04-22T07:12:26;100763.49;;;13.99;28.19
72330;BME280;69154;52.076;5.110;2023-04-22T07:14:52;100766.64;;;14.73;27.54
72330;BME280;69154;52.076;5.110;2023-04-22T07:17:17;100762.41;;;14.90;27.74
72330;BME280;69154;52.076;5.110;2023-04-22T07:19:42;100761.64;;;14.18;28.11
72330;BME280;69154;52.076;5.110;2023-04-22T07:22:07;100754.18;;;13.52;28.22
72330;BME280;69154;52.076;5.110;2023-04-22T07:24:32;100757.01;;;15.35;27.82
72330;BME280;69154;52.076;5.110;2023-04-22T07:26:58;100750.20;;;15.25;27.18
72330;BME280;69154;52.076;5.110;2023-04-22T07:29:23;100745.82;;;17.68;26.27
72330;BME280;69154;52.076;5.110;2023-04-22T07:31:48;100742.15;;;17.75;25.41
72330;BME280;69154;52.076;5.110;2023-04-22T07:34:13;100742.79;;;17.50;25.10
72330;BME280;69154;52.076;5.110;2023-04-22T07:36:40;100746.90;;;19.18;24.92
72330;BME280;69154;52.076;5.110;2023-04-22T07:39:04;100751.43;;;16.76;24.75
72330;BME280;69154;52.076;5.110;2023-04-22T07:41:29;100752.44;;;18.29;24.90
72330;BME280;69154;52.076;5.110;2023-04-22T07:43:55;100756.56;;;18.87;24.56
72330;BME280;69154;52.076;5.110;2023-04-22T07:46:20;100763.02;;;20.23;23.02
72330;BME280;69154;52.076;5.110;2023-04-22T07:48:46;100767.72;;;20.52;23.23
72330;BME280;69154;52.076;5.110;2023-04-22T07:51:11;100766.28;;;18.18;23.88
72330;BME280;69154;52.076;5.110;2023-04-22T07:53:36;100768.65;;;17.03;25.37
72330;BME280;69154;52.076;5.110;2023-04-22T07:56:03;100774.71;;;17.40;25.84
72330;BME280;69154;52.076;5.110;2023-04-22T07:58:27;100770.42;;;17.55;25.23
72330;BME280;69154;52.076;5.110;2023-04-22T08:00:53;100768.51;;;16.43;26.10
72330;BME280;69154;52.076;5.110;2023-04-22T08:03:19;100765.33;;;17.15;26.20
72330;BME280;69154;52.076;5.110;2023-04-22T08:05:44;100767.65;;;16.78;26.11
72330;BME280;69154;52.076;5.110;2023-04-22T08:08:09;100766.01;;;16.05;27.62
72330;BME280;69154;52.076;5.110;2023-04-22T08:10:35;100749.97;;;16.45;26.30
72330;BME280;69154;52.076;5.110;2023-04-22T08:13:00;100744.93;;;17.65;25.32
72330;BME280;69154;52.076;5.110;2023-04-22T08:15:26;100738.41;;;17.34;26.19
72330;BME280;69154;52.076;5.110;2023-04-22T08:17:51;100733.67;;;17.00;25.10
72330;BME280;69154;52.076;5.110;2023-04-22T08:20:16;100723.06;;;17.97;25.44
72330;BME280;69154;52.076;5.110;2023-04-22T08:22:41;100711.53;;;18.40;24.93
72330;BME280;69154;52.076;5.110;2023-04-22T08:25:07;100712.40;;;15.45;25.65
72330;BME280;69154;52.076;5.110;2023-04-22T08:27:31;100710.21;;;15.08;26.36
72330;BME280;69154;52.076;5.110;2023-04-22T08:29:58;100709.86;;;16.88;25.13
72330;BME280;69154;52.076;5.110;2023-04-22T08:32:22;100718.77;;;16.32;26.76
72330;BME280;69154;52.076;5.110;2023-04-22T08:34:47;100716.80;;;17.49;25.75
72330;BME280;69154;52.076;5.110;2023-04-22T08:37:13;100718.01;;;18.64;24.38
72330;BME280;69154;52.076;5.110;2023-04-22T08:39:38;100717.17;;;17.73;24.68
72330;BME280;69154;52.076;5.110;2023-04-22T08:42:04;100717.30;;;17.33;25.17
72330;BME280;69154;52.076;5.110;2023-04-22T08:44:29;100720.25;;;18.56;24.60
72330;BME280;69154;52.076;5.110;2023-04-22T08:46:54;100715.07;;;17.16;25.58
72330;BME280;69154;52.076;5.110;2023-04-22T08:49:19;100714.40;;;16.96;26.25
72330;BME280;69154;52.076;5.110;2023-04-22T08:51:45;100712.24;;;17.03;25.91
72330;BME280;69154;52.076;5.110;2023-04-22T08:54:12;100707.88;;;17.89;25.83
72330;BME280;69154;52.076;5.110;2023-04-22T08:56:38;100707.60;;;18.76;24.89
72330;BME280;69154;52.076;5.110;2023-04-22T08:59:02;100697.11;;;17.63;24.66
72330;BME280;69154;52.076;5.110;2023-04-22T09:01:27;100697.39;;;17.89;25.38
72330;BME280;69154;52.076;5.110;2023-04-22T09:03:52;100692.33;;;17.32;25.09
72330;BME280;69154;52.076;5.110;2023-04-22T09:06:18;100691.78;;;18.00;25.26
72330;BME280;69154;52.076;5.110;2023-04-22T09:08:44;100695.60;;;19.01;24.70
72330;BME280;69154;52.076;5.110;2023-04-22T09:11:08;100686.72;;;19.12;24.58
72330;BME280;69154;52.076;5.110;2023-04-22T09:13:34;100679.91;;;19.58;23.89
72330;BME280;69154;52.076;5.110;2023-04-22T09:15:59;100679.59;;;19.72;23.33
72330;BME280;69154;52.076;5.110;2023-04-22T09:18:25;100681.05;;;18.08;23.47
72330;BME280;69154;52.076;5.110;2023-04-22T09:20:54;100671.23;;;17.55;25.07
72330;BME280;69154;52.076;5.110;2023-04-22T09:23:16;100668.46;;;17.35;24.87
72330;BME280;69154;52.076;5.110;2023-04-22T09:25:44;100667.00;;;20.09;24.04
72330;BME280;69154;52.076;5.110;2023-04-22T09:28:10;100660.75;;;19.66;23.95
72330;BME280;69154;52.076;5.110;2023-04-22T09:30:34;100656.13;;;19.28;23.44
72330;BME280;69154;52.076;5.110;2023-04-22T09:32:59;100647.18;;;19.84;22.86
72330;BME280;69154;52.076;5.110;2023-04-22T09:35:29;100638.41;;;17.42;23.70
72330;BME280;69154;52.076;5.110;2023-04-22T09:37:50;100631.05;;;19.38;23.53
72330;BME280;69154;52.076;5.110;2023-04-22T09:40:14;100618.33;;;21.61;21.79
72330;BME280;69154;52.076;5.110;2023-04-22T09:42:47;100605.15;;;21.99;20.86
72330;BME280;69154;52.076;5.110;2023-04-22T09:45:06;100597.91;;;20.20;22.40
72330;BME280;69154;52.076;5.110;2023-04-22T09:47:35;100599.20;;;20.19;22.58
72330;BME280;69154;52.076;5.110;2023-04-22T09:49:56;100611.84;;;13.19;29.19
72330;BME280;69154;52.076;5.110;2023-04-22T09:52:23;100613.20;;;16.03;29.25
72330;BME280;69154;52.076;5.110;2023-04-22T09:54:48;100619.02;;;19.30;24.25
72330;BME280;69154;52.076;5.110;2023-04-22T09:57:13;100628.24;;;21.32;22.64
72330;BME280;69154;52.076;5.110;2023-04-22T09:59:38;100641.39;;;24.67;20.70
72330;BME280;69154;52.076;5.110;2023-04-22T10:02:04;100639.59;;;27.04;18.84
72330;BME280;69154;52.076;5.110;2023-04-22T10:04:29;100635.51;;;26.24;17.85
72330;BME280;69154;52.076;5.110;2023-04-22T10:06:55;100638.78;;;26.52;18.41
72330;BME280;69154;52.076;5.110;2023-04-22T10:09:21;100635.46;;;28.93;17.43
72330;BME280;69154;52.076;5.110;2023-04-22T10:11:46;100629.53;;;28.27;16.34
72330;BME280;69154;52.076;5.110;2023-04-22T10:14:11;100631.18;;;31.10;16.07
72330;BME280;69154;52.076;5.110;2023-04-22T10:16:38;100624.70;;;33.60;14.64
72330;BME280;69154;52.076;5.110;2023-04-22T10:19:04;100624.90;;;27.85;15.32
72330;BME280;69154;52.076;5.110;2023-04-22T10:21:29;100622.47;;;30.66;15.28
72330;BME280;69154;52.076;5.110;2023-04-22T10:23:52;100616.33;;;30.72;14.14
72330;BME280;69154;52.076;5.110;2023-04-22T10:26:54;100625.48;;;28.94;15.96
72330;BME280;69154;52.076;5.110;2023-04-22T10:28:44;100619.19;;;28.21;16.68
72330;BME280;69154;52.076;5.110;2023-04-22T10:31:19;100616.21;;;26.39;17.25
72330;BME280;69154;52.076;5.110;2023-04-22T10:33:35;100619.79;;;28.86;15.88
72330;BME280;69154;52.076;5.110;2023-04-22T10:36:09;100619.42;;;28.68;15.70
72330;BME280;69154;52.076;5.110;2023-04-22T10:38:26;100620.03;;;27.20;16.28
72330;BME280;69154;52.076;5.110;2023-04-22T10:40:58;100616.76;;;24.68;17.56
72330;BME280;69154;52.076;5.110;2023-04-22T10:43:18;100623.55;;;27.15;17.69
72330;BME280;69154;52.076;5.110;2023-04-22T10:45:42;100632.18;;;22.98;20.20
72330;BME280;69154;52.076;5.110;2023-04-22T10:48:07;100639.55;;;22.28;21.44
72330;BME280;69154;52.076;5.110;2023-04-22T10:50:33;100636.89;;;21.20;22.43
72330;BME280;69154;52.076;5.110;2023-04-22T10:53:01;100640.30;;;20.93;22.48
72330;BME280;69154;52.076;5.110;2023-04-22T10:55:24;100653.23;;;18.86;24.92
72330;BME280;69154;52.076;5.110;2023-04-22T10:57:52;100649.80;;;18.62;24.66
72330;BME280;69154;52.076;5.110;2023-04-22T11:00:20;100645.58;;;20.48;23.62
72330;BME280;69154;52.076;5.110;2023-04-22T11:02:43;100641.30;;;19.57;23.78
72330;BME280;69154;52.076;5.110;2023-04-22T11:05:23;100633.62;;;19.51;24.52
72330;BME280;69154;52.076;5.110;2023-04-22T11:07:31;100631.76;;;19.70;24.07
72330;BME280;69154;52.076;5.110;2023-04-22T11:10:00;100639.64;;;20.01;23.55
72330;BME280;69154;52.076;5.110;2023-04-22T11:12:54;100640.29;;;18.43;25.13
72330;BME280;69154;52.076;5.110;2023-04-22T11:14:48;100632.10;;;18.22;25.60
72330;BME280;69154;52.076;5.110;2023-04-22T11:17:13;100618.00;;;19.24;25.14
72330;BME280;69154;52.076;5.110;2023-04-22T11:19:39;100617.26;;;19.20;24.78
72330;BME280;69154;52.076;5.110;2023-04-22T11:22:04;100623.09;;;20.43;23.83
72330;BME280;69154;52.076;5.110;2023-04-22T11:24:30;100627.55;;;19.01;24.48
72330;BME280;69154;52.076;5.110;2023-04-22T11:26:55;100629.61;;;18.30;25.33
72330;BME280;69154;52.076;5.110;2023-04-22T11:29:22;100634.13;;;16.71;27.54
72330;BME280;69154;52.076;5.110;2023-04-22T11:31:48;100638.48;;;15.89;28.17
72330;BME280;69154;52.076;5.110;2023-04-22T11:34:12;100643.32;;;15.41;29.68
72330;BME280;69154;52.076;5.110;2023-04-22T11:36:37;100648.05;;;15.87;29.87
72330;BME280;69154;52.076;5.110;2023-04-22T11:39:07;100657.99;;;14.28;31.49
72330;BME280;69154;52.076;5.110;2023-04-22T11:41:28;100644.13;;;15.90;30.79
72330;BME280;69154;52.076;5.110;2023-04-22T11:43:54;100638.65;;;16.62;29.55
72330;BME280;69154;52.076;5.110;2023-04-22T11:46:27;100655.10;;;16.19;30.51
72330;BME280;69154;52.076;5.110;2023-04-22T11:48:44;100665.06;;;16.19;31.39
72330;BME280;69154;52.076;5.110;2023-04-22T11:51:10;100674.67;;;15.30;32.31
72330;BME280;69154;52.076;5.110;2023-04-22T11:53:35;100684.28;;;15.61;32.67
72330;BME280;69154;52.076;5.110;2023-04-22T11:56:01;100684.08;;;15.03;32.21
72330;BME280;69154;52.076;5.110;2023-04-22T11:58:26;100674.70;;;15.90;31.69
72330;BME280;69154;52.076;5.110;2023-04-22T12:00:52;100670.04;;;15.06;31.99
72330;BME280;69154;52.076;5.110;2023-04-22T12:03:18;100679.22;;;15.72;31.51
72330;BME280;69154;52.076;5.110;2023-04-22T12:05:43;100672.26;;;14.59;32.02
72330;BME280;69154;52.076;5.110;2023-04-22T12:08:09;100678.77;;;15.32;31.98
72330;BME280;69154;52.076;5.110;2023-04-22T12:10:32;100680.16;;;15.98;31.50
72330;BME280;69154;52.076;5.110;2023-04-22T12:12:59;100681.63;;;13.72;32.72
72330;BME280;69154;52.076;5.110;2023-04-22T12:15:24;100679.15;;;14.27;33.21
72330;BME280;69154;52.076;5.110;2023-04-22T12:17:50;100675.88;;;13.65;33.32
72330;BME280;69154;52.076;5.110;2023-04-22T12:20:15;100671.51;;;15.05;32.36
72330;BME280;69154;52.076;5.110;2023-04-22T12:22:40;100683.77;;;15.54;32.37
72330;BME280;69154;52.076;5.110;2023-04-22T12:25:06;100696.91;;;15.07;32.27
72330;BME280;69154;52.076;5.110;2023-04-22T12:27:31;100703.36;;;14.90;32.80
72330;BME280;69154;52.076;5.110;2023-04-22T12:29:57;100718.26;;;13.22;34.50
72330;BME280;69154;52.076;5.110;2023-04-22T12:32:24;100699.49;;;12.42;35.89
72330;BME280;69154;52.076;5.110;2023-04-22T12:34:48;100689.10;;;13.66;35.17
72330;BME280;69154;52.076;5.110;2023-04-22T12:37:13;100685.11;;;13.70;34.34
72330;BME280;69154;52.076;5.110;2023-04-22T12:39:38;100684.81;;;14.62;33.87
72330;BME280;69154;52.076;5.110;2023-04-22T12:42:04;100683.73;;;14.55;33.11